createdAt,value
2018-01-07T00:01:14.805Z,100129.03
2018-01-07T00:03:42.654Z,100129.78
2018-01-07T00:06:10.177Z,100139.84
2018-01-07T00:08:37.671Z,100144.80
2018-01-07T00:11:05.386Z,100162.46
2018-01-07T00:13:32.896Z,100159.91
2018-01-07T00:16:00.426Z,100160.91
2018-01-07T00:18:27.949Z,100156.63
2018-01-07T00:20:55.467Z,100154.73
2018-01-07T00:23:22.975Z,100150.80
2018-01-07T00:25:50.496Z,100157.68
2018-01-07T00:28:18.080Z,100159.27
2018-01-07T00:30:45.617Z,100158.30
2018-01-07T00:33:13.146Z,100168.62
2018-01-07T00:35:40.614Z,100172.45
2018-01-07T00:38:08.141Z,100177.34
2018-01-07T00:40:35.675Z,100184.92
2018-01-07T00:43:03.154Z,100188.41
2018-01-07T00:45:30.650Z,100189.73
2018-01-07T00:47:58.172Z,100190.34
2018-01-07T00:50:25.633Z,100199.55
2018-01-07T00:52:53.149Z,100204.87
2018-01-07T00:55:20.732Z,100207.77
2018-01-07T00:57:48.211Z,100211.13
2018-01-07T01:00:15.683Z,100215.55
2018-01-07T01:02:43.268Z,100223.73
2018-01-07T01:05:10.798Z,100234.00
2018-01-07T01:07:38.266Z,100237.98
2018-01-07T01:10:05.779Z,100237.85
2018-01-07T01:12:33.240Z,100240.25
2018-01-07T01:15:00.898Z,100242.34
2018-01-07T01:17:28.370Z,100245.13
2018-01-07T01:19:55.843Z,100264.64
2018-01-07T01:22:23.294Z,100265.14
2018-01-07T01:24:50.785Z,100264.08
2018-01-07T01:27:18.240Z,100266.63
2018-01-07T01:29:45.722Z,100272.62
2018-01-07T01:32:13.287Z,100272.98
2018-01-07T01:34:40.786Z,100267.44
2018-01-07T01:37:08.273Z,100272.59
2018-01-07T01:39:35.811Z,100277.73
2018-01-07T01:42:03.415Z,100282.61
2018-01-07T01:44:30.892Z,100286.01
2018-01-07T01:46:58.415Z,100291.73
2018-01-07T01:49:25.891Z,100300.59
2018-01-07T01:51:53.362Z,100306.14
2018-01-07T01:54:20.930Z,100308.13
2018-01-07T01:56:48.401Z,100316.65
2018-01-07T01:59:15.874Z,100318.81
2018-01-07T02:01:43.354Z,100314.08
2018-01-07T02:04:10.818Z,100314.53
2018-01-07T02:06:38.281Z,100323.90
2018-01-07T02:09:05.744Z,100319.89
2018-01-07T02:11:33.216Z,100332.58
2018-01-07T02:14:00.687Z,100336.62
2018-01-07T02:16:28.145Z,100341.75
2018-01-07T02:18:55.742Z,100336.22
2018-01-07T02:21:23.202Z,100345.33
2018-01-07T02:23:50.682Z,100354.74
2018-01-07T02:26:18.156Z,100351.91
2018-01-07T02:28:45.629Z,100362.17
2018-01-07T02:31:13.084Z,100366.29
2018-01-07T02:33:40.583Z,100366.58
2018-01-07T02:36:08.088Z,100373.30
2018-01-07T02:38:35.587Z,100376.98
2018-01-07T02:41:03.066Z,100383.00
2018-01-07T02:43:30.630Z,100383.85
2018-01-07T02:45:58.099Z,100388.05
2018-01-07T02:48:25.570Z,100390.89
2018-01-07T02:50:53.061Z,100395.77
2018-01-07T02:53:20.613Z,100396.61
2018-01-07T02:55:48.083Z,100399.31
2018-01-07T02:58:15.650Z,100399.13
2018-01-07T03:00:43.214Z,100396.39
2018-01-07T03:03:10.686Z,100405.42
2018-01-07T03:05:38.143Z,100408.12
2018-01-07T03:08:05.638Z,100410.91
2018-01-07T03:10:33.095Z,100415.39
2018-01-07T03:13:00.673Z,100419.91
2018-01-07T03:15:28.154Z,100425.17
2018-01-07T03:17:55.641Z,100435.06
2018-01-07T03:20:23.162Z,100428.28
2018-01-07T03:22:50.629Z,100439.80
2018-01-07T03:25:18.090Z,100442.23
2018-01-07T03:27:45.585Z,100445.59
2018-01-07T03:30:13.062Z,100440.59
2018-01-07T03:32:40.623Z,100447.69
2018-01-07T03:35:11.160Z,100435.55
2018-01-07T03:37:38.650Z,100437.28
2018-01-07T03:40:06.127Z,100447.51
2018-01-07T03:42:34.417Z,100465.39
2018-01-07T03:45:01.985Z,100464.34
2018-01-07T03:47:29.450Z,100465.97
2018-01-07T03:49:56.922Z,100462.20
2018-01-07T03:52:24.427Z,100464.64
2018-01-07T03:54:51.898Z,100462.46
2018-01-07T03:57:19.365Z,100473.48
2018-01-07T03:59:46.905Z,100483.77
2018-01-07T04:02:14.379Z,100491.51
2018-01-07T04:04:41.839Z,100495.67
2018-01-07T04:07:09.310Z,100510.41
2018-01-07T04:09:36.781Z,100511.91
2018-01-07T04:12:04.261Z,100512.05
2018-01-07T04:14:31.731Z,100513.02
2018-01-07T04:16:59.203Z,100525.15
2018-01-07T04:19:26.805Z,100517.92
2018-01-07T04:21:54.282Z,100522.31
2018-01-07T04:24:21.801Z,100522.91
2018-01-07T04:26:49.295Z,100534.17
2018-01-07T04:29:16.837Z,100530.02
2018-01-07T04:31:44.305Z,100536.48
2018-01-07T04:34:11.782Z,100532.59
2018-01-07T04:36:39.350Z,100535.03
2018-01-07T04:39:06.825Z,100538.37
2018-01-07T04:41:34.328Z,100543.19
2018-01-07T04:44:01.817Z,100549.17
2018-01-07T04:46:29.290Z,100545.53
2018-01-07T04:48:56.811Z,100544.11
2018-01-07T04:51:24.312Z,100555.87
2018-01-07T04:53:51.778Z,100557.68
2018-01-07T04:56:19.410Z,100561.08
2018-01-07T04:58:46.875Z,100570.49
2018-01-07T05:01:14.461Z,100566.44
2018-01-07T05:03:41.914Z,100574.80
2018-01-07T05:06:09.394Z,100574.47
2018-01-07T05:08:36.884Z,100580.41
2018-01-07T05:11:04.409Z,100576.27
2018-01-07T05:13:31.946Z,100576.83
2018-01-07T05:15:59.418Z,100583.63
2018-01-07T05:18:26.889Z,100586.80
2018-01-07T05:20:54.346Z,100581.69
2018-01-07T05:23:21.898Z,100585.24
2018-01-07T05:25:49.379Z,100592.53
2018-01-07T05:28:16.847Z,100606.02
2018-01-07T05:30:44.419Z,100611.61
2018-01-07T05:33:11.880Z,100622.30
2018-01-07T05:35:39.375Z,100633.66
2018-01-07T05:38:06.846Z,100636.19
2018-01-07T05:40:34.343Z,100637.98
2018-01-07T05:43:01.846Z,100640.23
2018-01-07T05:45:29.286Z,100647.21
2018-01-07T05:47:56.770Z,100642.27
2018-01-07T05:50:24.238Z,100640.82
2018-01-07T05:52:51.709Z,100648.66
2018-01-07T05:55:19.170Z,100649.98
2018-01-07T05:57:46.681Z,100658.23
2018-01-07T06:00:14.238Z,100670.72
2018-01-07T06:02:41.808Z,100678.28
2018-01-07T06:05:09.271Z,100686.03
2018-01-07T06:07:36.750Z,100683.95
2018-01-07T06:10:04.210Z,100687.72
2018-01-07T06:12:31.726Z,100693.90
2018-01-07T06:14:59.197Z,100700.25
2018-01-07T06:17:26.743Z,100708.61
2018-01-07T06:19:54.228Z,100721.48
2018-01-07T06:22:21.682Z,100727.41
2018-01-07T06:24:49.245Z,100740.33
2018-01-07T06:27:16.734Z,100744.25
2018-01-07T06:29:44.285Z,100749.63
2018-01-07T06:32:11.763Z,100764.41
2018-01-07T06:34:39.339Z,100761.27
2018-01-07T06:37:06.811Z,100769.44
2018-01-07T06:39:34.272Z,100779.04
2018-01-07T06:42:01.864Z,100784.10
2018-01-07T06:44:29.326Z,100782.50
2018-01-07T06:46:56.786Z,100783.69
2018-01-07T06:49:24.246Z,100797.34
2018-01-07T06:51:51.721Z,100793.98
2018-01-07T06:54:19.195Z,100800.94
2018-01-07T06:56:46.658Z,100801.38
2018-01-07T06:59:14.138Z,100804.80
2018-01-07T07:01:41.613Z,100809.25
2018-01-07T07:04:09.064Z,100812.06
2018-01-07T07:06:36.548Z,100814.71
2018-01-07T07:09:04.189Z,100823.06
2018-01-07T07:11:31.690Z,100828.16
2018-01-07T07:13:59.152Z,100845.73
2018-01-07T07:16:26.610Z,100843.20
2018-01-07T07:18:54.066Z,100848.14
2018-01-07T07:21:21.566Z,100852.78
2018-01-07T07:23:49.045Z,100857.45
2018-01-07T07:26:16.515Z,100861.34
2018-01-07T07:28:44.081Z,100869.25
2018-01-07T07:31:11.561Z,100861.51
2018-01-07T07:33:39.040Z,100864.67
2018-01-07T07:36:06.506Z,100868.25
2018-01-07T07:38:34.269Z,100872.22
2018-01-07T07:41:01.894Z,100895.23
2018-01-07T07:43:29.380Z,100892.23
2018-01-07T07:45:56.855Z,100897.33
2018-01-07T07:48:24.344Z,100896.09
2018-01-07T07:50:51.825Z,100903.55
2018-01-07T07:53:19.398Z,100913.31
2018-01-07T07:55:46.894Z,100914.03
2018-01-07T07:58:14.349Z,100919.94
2018-01-07T08:00:42.220Z,100929.73
2018-01-07T08:03:09.683Z,100939.70
2018-01-07T08:05:37.445Z,100938.69
2018-01-07T08:08:04.909Z,100944.56
2018-01-07T08:10:32.463Z,100949.55
2018-01-07T08:12:59.966Z,100961.16
2018-01-07T08:15:27.452Z,100953.03
2018-01-07T08:17:54.958Z,100955.77
2018-01-07T08:20:22.481Z,100963.55
2018-01-07T08:22:49.953Z,100974.30
2018-01-07T08:25:17.550Z,100978.38
2018-01-07T08:27:45.097Z,100983.69
2018-01-07T08:30:12.726Z,100990.60
2018-01-07T08:32:40.171Z,100992.16
2018-01-07T08:35:07.703Z,100997.08
2018-01-07T08:37:35.146Z,101004.73
2018-01-07T08:40:02.614Z,101012.91
2018-01-07T08:42:30.075Z,101008.52
2018-01-07T08:44:57.615Z,101014.30
2018-01-07T08:47:25.067Z,101012.50
2018-01-07T08:49:52.937Z,101016.25
2018-01-07T08:52:20.529Z,101024.47
2018-01-07T08:54:47.981Z,101030.52
2018-01-07T08:57:15.449Z,101032.20
2018-01-07T08:59:43.018Z,101035.34
2018-01-07T09:02:10.509Z,101033.86
2018-01-07T09:04:38.110Z,101034.14
2018-01-07T09:07:05.592Z,101039.30
2018-01-07T09:09:33.077Z,101036.12
2018-01-07T09:12:00.561Z,101041.19
2018-01-07T09:14:28.047Z,101046.28
2018-01-07T09:16:55.548Z,101053.59
2018-01-07T09:19:23.014Z,101063.18
2018-01-07T09:21:50.506Z,101054.05
2018-01-07T09:24:17.983Z,101056.19
2018-01-07T09:26:45.583Z,101063.09
2018-01-07T09:29:13.046Z,101073.81
2018-01-07T09:31:40.553Z,101078.38
2018-01-07T09:34:08.030Z,101085.00
2018-01-07T09:36:35.496Z,101082.05
2018-01-07T09:39:02.960Z,101096.46
2018-01-07T09:41:30.412Z,101102.47
2018-01-07T09:43:57.919Z,101097.36
2018-01-07T09:46:25.418Z,101102.16
2018-01-07T09:48:52.904Z,101092.57
2018-01-07T09:51:24.212Z,101099.28
2018-01-07T09:53:51.671Z,101100.12
2018-01-07T09:56:19.125Z,101097.87
2018-01-07T09:58:46.594Z,101102.96
2018-01-07T10:01:14.061Z,101106.83
2018-01-07T10:03:41.579Z,101113.62
2018-01-07T10:06:09.044Z,101109.48
2018-01-07T10:08:36.499Z,101117.54
2018-01-07T10:11:03.975Z,101115.81
2018-01-07T10:13:31.476Z,101115.80
2018-01-07T10:16:02.649Z,101117.14
2018-01-07T10:18:30.096Z,101121.52
2018-01-07T10:20:57.568Z,101127.23
2018-01-07T10:23:25.027Z,101126.41
2018-01-07T10:25:52.515Z,101136.19
2018-01-07T10:28:19.991Z,101147.11
2018-01-07T10:30:47.504Z,101139.73
2018-01-07T10:33:14.973Z,101145.04
2018-01-07T10:35:42.458Z,101149.41
2018-01-07T10:38:09.937Z,101145.53
2018-01-07T10:40:37.392Z,101141.98
2018-01-07T10:43:04.860Z,101145.35
2018-01-07T10:45:32.322Z,101149.20
2018-01-07T10:47:59.790Z,101159.72
2018-01-07T10:50:27.269Z,101156.14
2018-01-07T10:52:54.730Z,101151.05
2018-01-07T10:55:22.185Z,101152.97
2018-01-07T10:57:49.742Z,101154.39
2018-01-07T11:00:17.193Z,101153.77
2018-01-07T11:02:44.662Z,101143.58
2018-01-07T11:05:12.124Z,101139.28
2018-01-07T11:07:39.586Z,101152.84
2018-01-07T11:10:07.064Z,101150.73
2018-01-07T11:12:34.527Z,101148.89
2018-01-07T11:15:02.003Z,101152.55
2018-01-07T11:17:29.474Z,101154.20
2018-01-07T11:19:57.139Z,101155.63
2018-01-07T11:22:24.670Z,101155.72
2018-01-07T11:24:52.188Z,101152.99
2018-01-07T11:27:19.721Z,101161.84
2018-01-07T11:29:47.184Z,101163.86
2018-01-07T11:32:14.662Z,101160.00
2018-01-07T11:34:42.117Z,101169.89
2018-01-07T11:37:09.609Z,101169.48
2018-01-07T11:39:37.092Z,101168.66
2018-01-07T11:42:04.585Z,101174.06
2018-01-07T11:44:32.050Z,101174.67
2018-01-07T11:46:59.628Z,101184.36
2018-01-07T11:49:27.116Z,101184.45
2018-01-07T11:51:54.569Z,101183.96
2018-01-07T11:54:22.056Z,101187.03
2018-01-07T11:56:49.539Z,101181.53
2018-01-07T11:59:17.024Z,101183.27
2018-01-07T12:01:44.484Z,101183.36
2018-01-07T12:04:11.959Z,101178.04
2018-01-07T12:06:39.425Z,101174.69
2018-01-07T12:09:06.883Z,101181.60
2018-01-07T12:11:34.353Z,101175.27
2018-01-07T12:14:01.853Z,101182.20
2018-01-07T12:16:29.347Z,101190.17
2018-01-07T12:18:56.848Z,101189.44
2018-01-07T12:21:25.246Z,101192.71
2018-01-07T12:23:52.697Z,101188.34
2018-01-07T12:26:20.161Z,101193.11
2018-01-07T12:28:47.642Z,101193.00
2018-01-07T12:31:15.132Z,101194.55
2018-01-07T12:33:42.581Z,101198.64
2018-01-07T12:36:10.093Z,101191.80
2018-01-07T12:38:37.604Z,101195.14
2018-01-07T12:41:05.086Z,101204.22
2018-01-07T12:43:32.587Z,101197.58
2018-01-07T12:46:00.054Z,101193.59
2018-01-07T12:48:27.541Z,101193.92
2018-01-07T12:50:55.068Z,101200.77
2018-01-07T12:53:22.542Z,101200.95
2018-01-07T12:55:49.997Z,101196.17
2018-01-07T12:58:17.475Z,101202.89
2018-01-07T13:00:45.036Z,101196.78
2018-01-07T13:03:12.546Z,101199.13
2018-01-07T13:05:40.010Z,101199.82
2018-01-07T13:08:07.460Z,101206.15
2018-01-07T13:10:34.990Z,101205.86
2018-01-07T13:13:02.547Z,101201.36
2018-01-07T13:15:30.092Z,101202.91
2018-01-07T13:17:57.570Z,101205.77
2018-01-07T13:20:25.030Z,101203.91
2018-01-07T13:22:52.509Z,101213.09
2018-01-07T13:25:19.973Z,101209.73
2018-01-07T13:27:48.353Z,101217.68
2018-01-07T13:30:15.865Z,101218.66
2018-01-07T13:32:43.346Z,101221.55
2018-01-07T13:35:10.820Z,101228.17
2018-01-07T13:37:38.276Z,101225.34
2018-01-07T13:40:05.748Z,101229.41
2018-01-07T13:42:33.258Z,101227.58
2018-01-07T13:45:00.837Z,101231.57
2018-01-07T13:47:28.295Z,101237.27
2018-01-07T13:49:55.772Z,101241.55
2018-01-07T13:52:23.286Z,101236.26
2018-01-07T13:54:50.813Z,101242.34
2018-01-07T13:57:18.325Z,101242.84
2018-01-07T13:59:45.826Z,101245.50
2018-01-07T14:02:13.306Z,101249.80
2018-01-07T14:04:40.816Z,101250.70
2018-01-07T14:07:08.371Z,101256.63
2018-01-07T14:09:35.891Z,101259.47
2018-01-07T14:12:03.381Z,101260.02
2018-01-07T14:14:30.889Z,101262.77
2018-01-07T14:16:58.375Z,101269.60
2018-01-07T14:19:25.858Z,101265.73
2018-01-07T14:21:53.364Z,101262.86
2018-01-07T14:24:20.904Z,101264.50
2018-01-07T14:26:48.462Z,101268.88
2018-01-07T14:29:15.983Z,101264.81
2018-01-07T14:31:43.441Z,101267.97
2018-01-07T14:34:10.918Z,101264.59
2018-01-07T14:36:38.501Z,101265.20
2018-01-07T14:39:24.311Z,101268.38
2018-01-07T14:41:59.293Z,101273.79
2018-01-07T14:44:26.802Z,101279.50
2018-01-07T14:46:54.260Z,101280.92
2018-01-07T14:49:21.748Z,101276.94
2018-01-07T14:51:49.279Z,101273.79
2018-01-07T14:54:16.778Z,101273.06
2018-01-07T14:56:44.984Z,101275.00
2018-01-07T14:59:12.512Z,101272.64
2018-01-07T15:01:40.040Z,101271.84
2018-01-07T15:04:07.542Z,101275.80
2018-01-07T15:06:35.112Z,101273.98
2018-01-07T15:09:05.611Z,101281.13
2018-01-07T15:11:33.225Z,101276.52
2018-01-07T15:14:00.742Z,101282.86
2018-01-07T15:16:28.260Z,101280.11
2018-01-07T15:18:55.725Z,101281.32
2018-01-07T15:21:23.254Z,101289.27
2018-01-07T15:23:50.705Z,101295.18
2018-01-07T15:26:18.214Z,101295.91
2018-01-07T15:28:45.688Z,101300.91
2018-01-07T15:31:13.167Z,101303.45
2018-01-07T15:33:40.759Z,101305.00
2018-01-07T15:36:08.269Z,101307.13
2018-01-07T15:38:35.846Z,101302.56
2018-01-07T15:41:03.307Z,101315.30
2018-01-07T15:43:31.717Z,101317.24
2018-01-07T15:45:59.223Z,101316.13
2018-01-07T15:48:26.732Z,101317.12
2018-01-07T15:50:54.230Z,101320.30
2018-01-07T15:53:21.751Z,101317.55
2018-01-07T15:55:49.234Z,101329.46
2018-01-07T15:58:16.792Z,101323.98
2018-01-07T16:00:44.335Z,101329.38
2018-01-07T16:03:11.862Z,101337.63
2018-01-07T16:05:39.386Z,101332.12
2018-01-07T16:08:06.948Z,101333.25
2018-01-07T16:10:34.423Z,101337.63
2018-01-07T16:13:01.906Z,101336.61
2018-01-07T16:15:29.426Z,101340.98
2018-01-07T16:17:57.025Z,101343.95
2018-01-07T16:20:24.478Z,101349.45
2018-01-07T16:22:52.014Z,101344.77
2018-01-07T16:25:19.511Z,101347.62
2018-01-07T16:27:47.125Z,101351.87
2018-01-07T16:30:14.633Z,101354.23
2018-01-07T16:32:42.154Z,101353.92
2018-01-07T16:35:11.044Z,101358.82
2018-01-07T16:37:38.566Z,101361.69
2018-01-07T16:40:06.072Z,101364.12
2018-01-07T16:42:33.704Z,101371.47
2018-01-07T16:45:02.261Z,101373.80
2018-01-07T16:47:29.766Z,101380.33
2018-01-07T16:49:57.321Z,101380.02
2018-01-07T16:52:24.927Z,101386.13
2018-01-07T16:54:52.562Z,101385.00
2018-01-07T16:57:20.141Z,101385.63
2018-01-07T16:59:47.710Z,101390.80
2018-01-07T17:02:15.238Z,101387.05
2018-01-07T17:04:42.739Z,101390.41
2018-01-07T17:07:10.316Z,101388.67
2018-01-07T17:09:37.898Z,101388.67
2018-01-07T17:12:05.614Z,101389.70
2018-01-07T17:14:33.160Z,101388.97
2018-01-07T17:17:00.643Z,101386.83
2018-01-07T17:19:28.099Z,101383.67
2018-01-07T17:21:55.651Z,101378.70
2018-01-07T17:24:23.153Z,101384.29
2018-01-07T17:26:50.674Z,101389.08
2018-01-07T17:29:18.211Z,101382.13
2018-01-07T17:31:45.750Z,101385.59
2018-01-07T17:34:13.300Z,101384.78
2018-01-07T17:36:40.894Z,101385.98
2018-01-07T17:39:08.409Z,101389.55
2018-01-07T17:41:36.015Z,101384.14
2018-01-07T17:44:03.569Z,101381.20
2018-01-07T17:46:31.053Z,101379.25
2018-01-07T17:48:58.575Z,101387.52
2018-01-07T17:51:26.076Z,101389.44
2018-01-07T17:53:53.642Z,101386.77
2018-01-07T17:56:21.152Z,101391.55
2018-01-07T17:58:48.664Z,101391.14
2018-01-07T18:01:16.251Z,101396.25
2018-01-07T18:03:43.744Z,101395.01
2018-01-07T18:06:11.256Z,101404.06
2018-01-07T18:08:38.804Z,101411.90
2018-01-07T18:11:06.360Z,101408.62
2018-01-07T18:13:33.971Z,101426.36
2018-01-07T18:16:01.489Z,101422.89
2018-01-07T18:18:29.010Z,101430.92
2018-01-07T18:20:56.560Z,101427.16
2018-01-07T18:23:24.144Z,101427.68
2018-01-07T18:25:51.694Z,101429.63
2018-01-07T18:28:19.294Z,101423.59
2018-01-07T18:30:46.875Z,101416.05
2018-01-07T18:33:14.409Z,101416.16
2018-01-07T18:35:41.921Z,101415.47
2018-01-07T18:38:09.438Z,101424.13
2018-01-07T18:40:36.996Z,101420.53
2018-01-07T18:43:04.513Z,101427.94
2018-01-07T18:45:32.042Z,101431.28
2018-01-07T18:47:59.569Z,101437.42
2018-01-07T18:50:27.140Z,101429.33
2018-01-07T18:52:54.659Z,101430.33
2018-01-07T18:55:22.184Z,101431.33
2018-01-07T18:57:49.712Z,101423.70
2018-01-07T19:00:17.225Z,101434.08
2018-01-07T19:02:44.760Z,101429.59
2018-01-07T19:05:12.278Z,101435.81
2018-01-07T19:07:39.777Z,101438.86
2018-01-07T19:10:07.290Z,101434.48
2018-01-07T19:12:34.800Z,101439.16
2018-01-07T19:15:02.324Z,101443.78
2018-01-07T19:17:29.837Z,101445.22
2018-01-07T19:19:57.371Z,101439.73
2018-01-07T19:22:24.884Z,101446.55
2018-01-07T19:24:52.447Z,101449.59
2018-01-07T19:27:19.956Z,101449.20
2018-01-07T19:29:47.490Z,101456.14
2018-01-07T19:32:15.027Z,101451.99
2018-01-07T19:34:42.580Z,101455.67
2018-01-07T19:37:10.105Z,101455.45
2018-01-07T19:39:37.648Z,101454.42
2018-01-07T19:42:05.190Z,101455.92
2018-01-07T19:44:32.811Z,101446.25
2018-01-07T19:47:00.336Z,101451.84
2018-01-07T19:49:27.864Z,101454.78
2018-01-07T19:51:55.393Z,101442.86
2018-01-07T19:54:22.919Z,101446.50
2018-01-07T19:56:50.463Z,101454.32
2018-01-07T19:59:17.972Z,101461.64
2018-01-07T20:01:45.514Z,101459.17
2018-01-07T20:04:13.038Z,101461.23
2018-01-07T20:06:40.559Z,101451.85
2018-01-07T20:09:08.115Z,101454.97
2018-01-07T20:11:35.653Z,101460.39
2018-01-07T20:14:03.182Z,101460.83
2018-01-07T20:16:31.006Z,101461.64
2018-01-07T20:18:58.539Z,101465.05
2018-01-07T20:21:26.042Z,101472.98
2018-01-07T20:23:53.594Z,101483.58
2018-01-07T20:26:21.133Z,101477.29
2018-01-07T20:28:48.669Z,101471.70
2018-01-07T20:31:16.193Z,101474.89
2018-01-07T20:33:43.729Z,101488.13
2018-01-07T20:36:11.298Z,101489.48
2018-01-07T20:38:38.873Z,101486.73
2018-01-07T20:41:06.403Z,101486.28
2018-01-07T20:43:34.036Z,101483.81
2018-01-07T20:46:01.610Z,101484.37
2018-01-07T20:48:29.117Z,101474.37
2018-01-07T20:50:56.656Z,101481.39
2018-01-07T20:53:24.190Z,101487.87
2018-01-07T20:55:51.694Z,101477.41
2018-01-07T20:58:19.254Z,101477.81
2018-01-07T21:00:46.866Z,101479.36
2018-01-07T21:03:14.395Z,101479.09
2018-01-07T21:05:41.906Z,101474.14
2018-01-07T21:08:10.222Z,101466.66
2018-01-07T21:10:37.740Z,101465.11
2018-01-07T21:13:25.158Z,101477.02
2018-01-07T21:15:54.472Z,101485.53
2018-01-07T21:18:21.988Z,101475.13
2018-01-07T21:20:49.509Z,101481.45
2018-01-07T21:23:17.016Z,101483.69
2018-01-07T21:25:44.605Z,101476.66
2018-01-07T21:28:12.112Z,101470.80
2018-01-07T21:30:39.647Z,101474.81
2018-01-07T21:33:07.220Z,101468.16
2018-01-07T21:35:34.734Z,101470.98
2018-01-07T21:38:02.272Z,101466.14
2018-01-07T21:40:29.803Z,101473.79
2018-01-07T21:42:57.376Z,101466.66
2018-01-07T21:45:24.959Z,101465.55
2018-01-07T21:47:52.489Z,101468.60
2018-01-07T21:50:20.010Z,101467.17
2018-01-07T21:52:47.568Z,101474.81
2018-01-07T21:55:15.102Z,101464.41
2018-01-07T21:57:42.612Z,101473.80
2018-01-07T22:00:33.925Z,101473.38
2018-01-07T22:03:13.193Z,101477.23
2018-01-07T22:05:55.588Z,101469.83
2018-01-07T22:08:23.104Z,101479.88
2018-01-07T22:10:50.620Z,101483.38
2018-01-07T22:13:18.157Z,101484.94
2018-01-07T22:15:45.666Z,101484.70
2018-01-07T22:18:13.183Z,101485.01
2018-01-07T22:20:40.717Z,101482.77
2018-01-07T22:23:08.232Z,101483.40
2018-01-07T22:25:35.750Z,101486.80
2018-01-07T22:28:03.264Z,101485.76
2018-01-07T22:30:30.836Z,101488.51
2018-01-07T22:32:58.349Z,101489.30
2018-01-07T22:35:25.869Z,101492.83
2018-01-07T22:37:53.380Z,101494.49
2018-01-07T22:40:20.911Z,101489.72
2018-01-07T22:42:48.417Z,101484.09
2018-01-07T22:45:15.933Z,101478.92
2018-01-07T22:47:49.200Z,101474.19
2018-01-07T22:50:16.692Z,101474.77
2018-01-07T22:52:44.216Z,101479.72
2018-01-07T22:55:11.733Z,101471.72
2018-01-07T22:57:39.260Z,101477.93
2018-01-07T23:00:06.796Z,101467.86
2018-01-07T23:02:34.336Z,101477.70
2018-01-07T23:05:01.878Z,101473.22
2018-01-07T23:07:29.409Z,101472.92
2018-01-07T23:09:56.955Z,101470.50
2018-01-07T23:12:24.521Z,101469.48
2018-01-07T23:14:52.060Z,101473.16
2018-01-07T23:17:19.593Z,101477.77
2018-01-07T23:19:52.290Z,101477.08
2018-01-07T23:22:19.820Z,101477.45
2018-01-07T23:24:47.398Z,101482.20
2018-01-07T23:27:14.908Z,101485.06
2018-01-07T23:29:42.436Z,101487.14
2018-01-07T23:32:09.905Z,101491.33
2018-01-07T23:34:37.425Z,101482.88
2018-01-07T23:37:04.932Z,101487.25
2018-01-07T23:39:32.482Z,101484.73
2018-01-07T23:41:59.992Z,101485.83
2018-01-07T23:44:27.540Z,101479.15
2018-01-07T23:46:54.998Z,101478.56
2018-01-07T23:49:22.506Z,101487.09
2018-01-07T23:51:50.016Z,101480.87
2018-01-07T23:54:17.622Z,101475.24
2018-01-07T23:56:45.143Z,101483.04
2018-01-07T23:59:12.601Z,101475.84
